Welcome to Trans World Virtual Airlines!

Welcome TWVA's Newest Pilot:

TWA2297 Terrance P OLeary

Not a Trans World pilot yet?
Apply Now!




Sign-in with your pilot id or email, or register

Flight TWA494

  • Submitted By: Austin Hill
  • Departure Airport: Minneapolis-Saint Paul International Airport (KMSP)
  • Arrival Airport: Lambert-Saint Louis International Airport (KSTL)
  • Aircraft: MD-83 (N44266TW)
  • Flight Time: 02.00
  • Date Submitted: 04/13/2018
  • Route: FGT RST ALO IOW MYKEY STL KSTL
  • Status: Accepted
Flight Details
Gross Revenue:
(119 load / $ 195.00 per unit
$ 23, 205.00
Fuel Cost:
(14751 fuel used @ 0.8 / unit)
$ 11, 800.80

Additional Log Information:

View Log

FS[12:49] Aircraft Title - MD_83 Paint4
FS[12:49] Aircraft Model - MD83
FS[12:49] Flight Number TWA494
FS[12:49] Departure KMSP
FS[12:49] Destination KSTL
FS[12:49] Boarding
FS[13:00] Pushing Back
FS[13:04] Taxiing to Runway
FS[13:31] Taking Off
FS[13:32] Taking Off
FS[13:32] 176kts
FS[13:32] pitch angle 8 degrees
FS[13:32] 22980 (lbs) of fuel onboard
FS[13:32] Climbing
FS[13:45] TOC Reached
FS[13:45] Cruise 29000
FS[14:19] TOD Reached
FS[14:19] Descending
FS[14:32] On Approach
FS[14:38] Landing Rate -75fpm
FS[14:38] 11510 (lbs) of fuel onboard
FS[14:38] pitch angle 9 degrees
FS[14:38] Taxiing to Gate
FS[14:42] Arrived
FS[14:48] Max Sim Rate: 1x
FS[14:48] kACARS_Free Version 1.0.1.1

Comments

Commenter Comment
Austin Hill Delayed departure out of MSP due to long EFC times and dense traffic// KMSP 131248Z 06019G23KT 10SM OVC095 04/01 A2977 // KSTL 131420Z 19115KT 10SM FEW040 SCT075 BKN150 21/13 A2963// Improving my landing rate, gonna see if I can take the number one spot for top landing this month ;) look out Howard! lol

Route Map